sensor_id;sensor_type;location;lat;lon;timestamp;pressure;altitude;pressure_sealevel;temperature;humidity
6028;BME280;3042;43.194;27.646;2022-12-24T00:01:44;101537.75;;;8.59;100.00
6028;BME280;3042;43.194;27.646;2022-12-24T00:04:11;101548.34;;;8.51;100.00
6028;BME280;3042;43.194;27.646;2022-12-24T00:06:38;101545.25;;;8.56;100.00
6028;BME280;3042;43.194;27.646;2022-12-24T00:09:05;101514.16;;;8.40;100.00
6028;BME280;3042;43.194;27.646;2022-12-24T00:11:32;101554.97;;;8.60;100.00
6028;BME280;3042;43.194;27.646;2022-12-24T00:14:00;101550.81;;;8.62;100.00
6028;BME280;3042;43.194;27.646;2022-12-24T00:16:28;101545.88;;;8.79;100.00
6028;BME280;3042;43.194;27.646;2022-12-24T00:18:56;101563.38;;;8.06;100.00
6028;BME280;3042;43.194;27.646;2022-12-24T00:21:23;101561.19;;;7.99;100.00
6028;BME280;3042;43.194;27.646;2022-12-24T00:23:50;101552.88;;;8.03;100.00
6028;BME280;3042;43.194;27.646;2022-12-24T00:26:17;101558.63;;;8.12;100.00
6028;BME280;3042;43.194;27.646;2022-12-24T00:28:44;101565.06;;;8.19;100.00
6028;BME280;3042;43.194;27.646;2022-12-24T00:31:13;101557.69;;;8.37;100.00
6028;BME280;3042;43.194;27.646;2022-12-24T00:33:42;101554.44;;;8.39;100.00
6028;BME280;3042;43.194;27.646;2022-12-24T00:36:09;101462.03;;;7.66;100.00
6028;BME280;3042;43.194;27.646;2022-12-24T00:38:37;101558.84;;;8.15;100.00
6028;BME280;3042;43.194;27.646;2022-12-24T00:41:06;101539.06;;;8.28;100.00
6028;BME280;3042;43.194;27.646;2022-12-24T00:43:49;101497.47;;;8.08;100.00
6028;BME280;3042;43.194;27.646;2022-12-24T00:46:16;101535.03;;;8.31;100.00
6028;BME280;3042;43.194;27.646;2022-12-24T00:48:46;101530.22;;;8.49;100.00
6028;BME280;3042;43.194;27.646;2022-12-24T00:51:14;101533.72;;;8.38;100.00
6028;BME280;3042;43.194;27.646;2022-12-24T00:53:41;101482.41;;;8.01;100.00
6028;BME280;3042;43.194;27.646;2022-12-24T00:56:09;101537.69;;;8.33;100.00
6028;BME280;3042;43.194;27.646;2022-12-24T00:58:36;101497.88;;;8.28;100.00
6028;BME280;3042;43.194;27.646;2022-12-24T01:01:04;101523.06;;;8.45;100.00
6028;BME280;3042;43.194;27.646;2022-12-24T01:03:31;101520.84;;;8.38;100.00
6028;BME280;3042;43.194;27.646;2022-12-24T01:06:05;101520.03;;;8.51;100.00
6028;BME280;3042;43.194;27.646;2022-12-24T01:08:32;101518.31;;;8.51;100.00
6028;BME280;3042;43.194;27.646;2022-12-24T01:11:00;101520.13;;;8.52;100.00
6028;BME280;3042;43.194;27.646;2022-12-24T01:13:27;101520.31;;;8.55;100.00
6028;BME280;3042;43.194;27.646;2022-12-24T01:15:55;101513.00;;;8.48;100.00
6028;BME280;3042;43.194;27.646;2022-12-24T01:18:22;101416.50;;;8.03;100.00
6028;BME280;3042;43.194;27.646;2022-12-24T01:20:55;101500.09;;;8.61;100.00
6028;BME280;3042;43.194;27.646;2022-12-24T01:23:24;101493.75;;;8.70;100.00
6028;BME280;3042;43.194;27.646;2022-12-24T01:25:52;101507.00;;;8.36;100.00
6028;BME280;3042;43.194;27.646;2022-12-24T01:28:19;101520.53;;;8.33;100.00
6028;BME280;3042;43.194;27.646;2022-12-24T01:30:46;101512.75;;;8.32;100.00
6028;BME280;3042;43.194;27.646;2022-12-24T01:33:14;101228.59;;;6.70;100.00
6028;BME280;3042;43.194;27.646;2022-12-24T01:35:42;101504.63;;;8.39;100.00
6028;BME280;3042;43.194;27.646;2022-12-24T01:38:10;101502.69;;;8.48;100.00
6028;BME280;3042;43.194;27.646;2022-12-24T01:40:40;101388.75;;;7.86;100.00
6028;BME280;3042;43.194;27.646;2022-12-24T01:43:28;101505.06;;;8.58;100.00
6028;BME280;3042;43.194;27.646;2022-12-24T01:45:57;101509.81;;;8.52;100.00
6028;BME280;3042;43.194;27.646;2022-12-24T01:48:32;101450.63;;;8.14;100.00
6028;BME280;3042;43.194;27.646;2022-12-24T01:51:06;101509.00;;;8.40;100.00
6028;BME280;3042;43.194;27.646;2022-12-24T01:53:37;101507.63;;;8.45;100.00
6028;BME280;3042;43.194;27.646;2022-12-24T01:56:08;101503.69;;;8.50;100.00
6028;BME280;3042;43.194;27.646;2022-12-24T01:58:38;101510.34;;;8.35;100.00
6028;BME280;3042;43.194;27.646;2022-12-24T02:01:06;101520.63;;;8.21;100.00
6028;BME280;3042;43.194;27.646;2022-12-24T02:03:33;101530.88;;;7.95;100.00
6028;BME280;3042;43.194;27.646;2022-12-24T02:06:01;101469.00;;;7.55;100.00
6028;BME280;3042;43.194;27.646;2022-12-24T02:08:28;101521.38;;;7.94;100.00
6028;BME280;3042;43.194;27.646;2022-12-24T02:11:11;101484.16;;;8.02;100.00
6028;BME280;3042;43.194;27.646;2022-12-24T02:13:39;101513.06;;;7.98;100.00
6028;BME280;3042;43.194;27.646;2022-12-24T02:16:14;101505.69;;;8.16;100.00
6028;BME280;3042;43.194;27.646;2022-12-24T02:18:50;101503.41;;;8.20;100.00
6028;BME280;3042;43.194;27.646;2022-12-24T02:21:54;101409.09;;;7.69;100.00
6028;BME280;3042;43.194;27.646;2022-12-24T02:24:47;101497.25;;;8.18;100.00
6028;BME280;3042;43.194;27.646;2022-12-24T02:27:31;101510.03;;;8.17;100.00
6028;BME280;3042;43.194;27.646;2022-12-24T02:30:15;101428.84;;;7.82;100.00
6028;BME280;3042;43.194;27.646;2022-12-24T02:33:02;101504.41;;;8.22;100.00
6028;BME280;3042;43.194;27.646;2022-12-24T02:35:37;101505.00;;;8.18;100.00
6028;BME280;3042;43.194;27.646;2022-12-24T02:38:12;101483.22;;;8.13;100.00
6028;BME280;3042;43.194;27.646;2022-12-24T02:40:47;101498.16;;;8.19;100.00
6028;BME280;3042;43.194;27.646;2022-12-24T02:43:19;101506.19;;;8.23;100.00
6028;BME280;3042;43.194;27.646;2022-12-24T02:45:52;101476.06;;;8.09;100.00
6028;BME280;3042;43.194;27.646;2022-12-24T02:48:21;101508.91;;;8.00;100.00
6028;BME280;3042;43.194;27.646;2022-12-24T02:51:02;101493.91;;;8.19;100.00
6028;BME280;3042;43.194;27.646;2022-12-24T02:53:30;101395.19;;;7.40;100.00
6028;BME280;3042;43.194;27.646;2022-12-24T02:56:20;101507.44;;;8.17;100.00
6028;BME280;3042;43.194;27.646;2022-12-24T02:58:58;101413.47;;;7.70;100.00
6028;BME280;3042;43.194;27.646;2022-12-24T03:01:41;101505.97;;;8.20;100.00
6028;BME280;3042;43.194;27.646;2022-12-24T03:04:20;101516.28;;;8.20;100.00
6028;BME280;3042;43.194;27.646;2022-12-24T03:07:08;101523.00;;;8.18;100.00
6028;BME280;3042;43.194;27.646;2022-12-24T03:09:47;101491.31;;;8.06;100.00
6028;BME280;3042;43.194;27.646;2022-12-24T03:12:19;101517.44;;;8.12;100.00
6028;BME280;3042;43.194;27.646;2022-12-24T03:14:49;101483.25;;;7.63;100.00
6028;BME280;3042;43.194;27.646;2022-12-24T03:17:18;101489.25;;;7.75;100.00
6028;BME280;3042;43.194;27.646;2022-12-24T03:19:46;101515.31;;;7.93;100.00
6028;BME280;3042;43.194;27.646;2022-12-24T03:22:15;101510.84;;;7.91;100.00
6028;BME280;3042;43.194;27.646;2022-12-24T03:24:44;101511.63;;;7.76;100.00
6028;BME280;3042;43.194;27.646;2022-12-24T03:27:12;101509.28;;;7.93;100.00
6028;BME280;3042;43.194;27.646;2022-12-24T03:29:40;101512.66;;;7.92;100.00
6028;BME280;3042;43.194;27.646;2022-12-24T03:32:07;101419.22;;;7.41;100.00
6028;BME280;3042;43.194;27.646;2022-12-24T03:34:36;101502.69;;;8.10;100.00
6028;BME280;3042;43.194;27.646;2022-12-24T03:37:03;101449.25;;;7.54;100.00
6028;BME280;3042;43.194;27.646;2022-12-24T03:39:31;101487.25;;;7.71;100.00
6028;BME280;3042;43.194;27.646;2022-12-24T03:41:58;101513.53;;;7.92;100.00
6028;BME280;3042;43.194;27.646;2022-12-24T03:44:25;101501.41;;;8.03;100.00
6028;BME280;3042;43.194;27.646;2022-12-24T03:46:52;101473.06;;;7.90;100.00
6028;BME280;3042;43.194;27.646;2022-12-24T03:49:19;101462.78;;;7.90;100.00
6028;BME280;3042;43.194;27.646;2022-12-24T03:51:48;101488.16;;;8.23;100.00
6028;BME280;3042;43.194;27.646;2022-12-24T03:54:15;101503.38;;;8.07;100.00
6028;BME280;3042;43.194;27.646;2022-12-24T03:56:42;101471.47;;;7.78;100.00
6028;BME280;3042;43.194;27.646;2022-12-24T03:59:09;101511.28;;;7.97;100.00
6028;BME280;3042;43.194;27.646;2022-12-24T04:01:37;101455.97;;;7.65;100.00
6028;BME280;3042;43.194;27.646;2022-12-24T04:04:04;101479.44;;;7.70;100.00
6028;BME280;3042;43.194;27.646;2022-12-24T04:06:31;101521.06;;;7.89;100.00
6028;BME280;3042;43.194;27.646;2022-12-24T04:09:00;101508.91;;;8.00;100.00
6028;BME280;3042;43.194;27.646;2022-12-24T04:11:30;101522.16;;;7.93;100.00
6028;BME280;3042;43.194;27.646;2022-12-24T04:13:58;101525.31;;;7.89;100.00
6028;BME280;3042;43.194;27.646;2022-12-24T04:16:25;101450.31;;;7.32;100.00
6028;BME280;3042;43.194;27.646;2022-12-24T04:18:52;101531.75;;;7.82;100.00
6028;BME280;3042;43.194;27.646;2022-12-24T04:21:19;101529.81;;;7.79;100.00
6028;BME280;3042;43.194;27.646;2022-12-24T04:23:47;101527.47;;;7.82;100.00
6028;BME280;3042;43.194;27.646;2022-12-24T04:26:15;101526.03;;;7.74;100.00
6028;BME280;3042;43.194;27.646;2022-12-24T04:28:43;101526.09;;;7.26;100.00
6028;BME280;3042;43.194;27.646;2022-12-24T04:31:12;101520.88;;;7.24;100.00
6028;BME280;3042;43.194;27.646;2022-12-24T04:33:40;101452.59;;;6.91;100.00
6028;BME280;3042;43.194;27.646;2022-12-24T04:36:10;101416.13;;;7.08;100.00
6028;BME280;3042;43.194;27.646;2022-12-24T04:38:38;101521.13;;;7.52;100.00
6028;BME280;3042;43.194;27.646;2022-12-24T04:41:07;101206.66;;;6.00;100.00
6028;BME280;3042;43.194;27.646;2022-12-24T04:43:36;101510.25;;;7.81;100.00
6028;BME280;3042;43.194;27.646;2022-12-24T04:46:04;101508.66;;;7.83;100.00
6028;BME280;3042;43.194;27.646;2022-12-24T04:48:31;101507.34;;;7.77;100.00
6028;BME280;3042;43.194;27.646;2022-12-24T04:51:00;101505.41;;;7.86;100.00
6028;BME280;3042;43.194;27.646;2022-12-24T04:53:28;101516.13;;;7.67;100.00
6028;BME280;3042;43.194;27.646;2022-12-24T04:55:56;101521.22;;;7.79;100.00
6028;BME280;3042;43.194;27.646;2022-12-24T04:58:23;101364.94;;;6.86;100.00
6028;BME280;3042;43.194;27.646;2022-12-24T05:00:52;101488.56;;;7.78;100.00
6028;BME280;3042;43.194;27.646;2022-12-24T05:03:20;101526.84;;;7.73;100.00
6028;BME280;3042;43.194;27.646;2022-12-24T05:05:47;101526.09;;;7.88;100.00
6028;BME280;3042;43.194;27.646;2022-12-24T05:08:14;101519.56;;;7.93;100.00
6028;BME280;3042;43.194;27.646;2022-12-24T05:10:42;101520.75;;;7.85;100.00
6028;BME280;3042;43.194;27.646;2022-12-24T05:13:09;101529.25;;;7.83;100.00
6028;BME280;3042;43.194;27.646;2022-12-24T05:15:36;101537.91;;;7.72;100.00
6028;BME280;3042;43.194;27.646;2022-12-24T05:18:05;101527.59;;;7.97;100.00
6028;BME280;3042;43.194;27.646;2022-12-24T05:20:32;101532.94;;;7.62;100.00
6028;BME280;3042;43.194;27.646;2022-12-24T05:22:59;101550.53;;;7.44;100.00
6028;BME280;3042;43.194;27.646;2022-12-24T05:25:43;101512.72;;;7.18;100.00
6028;BME280;3042;43.194;27.646;2022-12-24T05:28:28;101545.53;;;7.34;100.00
6028;BME280;3042;43.194;27.646;2022-12-24T05:30:55;101411.66;;;6.69;100.00
6028;BME280;3042;43.194;27.646;2022-12-24T05:33:24;101536.25;;;7.73;100.00
6028;BME280;3042;43.194;27.646;2022-12-24T05:35:51;101544.00;;;7.61;100.00
6028;BME280;3042;43.194;27.646;2022-12-24T05:38:18;101541.66;;;7.64;100.00
6028;BME280;3042;43.194;27.646;2022-12-24T05:40:46;101509.34;;;7.56;100.00
6028;BME280;3042;43.194;27.646;2022-12-24T05:43:13;101469.22;;;7.33;100.00
6028;BME280;3042;43.194;27.646;2022-12-24T05:45:40;101541.47;;;7.74;100.00
6028;BME280;3042;43.194;27.646;2022-12-24T05:48:08;101549.69;;;7.69;100.00
6028;BME280;3042;43.194;27.646;2022-12-24T05:50:38;101534.81;;;7.90;100.00
6028;BME280;3042;43.194;27.646;2022-12-24T05:53:05;101548.25;;;7.60;100.00
6028;BME280;3042;43.194;27.646;2022-12-24T05:55:33;101549.34;;;7.64;100.00
6028;BME280;3042;43.194;27.646;2022-12-24T05:58:00;101547.69;;;7.90;100.00
6028;BME280;3042;43.194;27.646;2022-12-24T06:00:27;101548.06;;;7.82;100.00
6028;BME280;3042;43.194;27.646;2022-12-24T06:02:54;101546.25;;;7.81;100.00
6028;BME280;3042;43.194;27.646;2022-12-24T06:05:22;101510.34;;;7.58;100.00
6028;BME280;3042;43.194;27.646;2022-12-24T06:07:50;101537.44;;;8.03;100.00
6028;BME280;3042;43.194;27.646;2022-12-24T06:10:17;101541.72;;;7.91;100.00
6028;BME280;3042;43.194;27.646;2022-12-24T06:12:45;101553.78;;;7.78;100.00
6028;BME280;3042;43.194;27.646;2022-12-24T06:15:12;101553.09;;;7.81;100.00
6028;BME280;3042;43.194;27.646;2022-12-24T06:17:39;101547.47;;;7.87;100.00
6028;BME280;3042;43.194;27.646;2022-12-24T06:20:08;101548.31;;;7.99;100.00
6028;BME280;3042;43.194;27.646;2022-12-24T06:22:35;101550.19;;;8.01;100.00
6028;BME280;3042;43.194;27.646;2022-12-24T06:25:04;101524.44;;;8.40;100.00
6028;BME280;3042;43.194;27.646;2022-12-24T06:27:32;101531.16;;;8.38;100.00
6028;BME280;3042;43.194;27.646;2022-12-24T06:29:59;101536.28;;;8.38;100.00
6028;BME280;3042;43.194;27.646;2022-12-24T06:32:26;101542.03;;;8.20;100.00
6028;BME280;3042;43.194;27.646;2022-12-24T06:34:54;101546.06;;;8.17;100.00
6028;BME280;3042;43.194;27.646;2022-12-24T06:37:21;101405.84;;;7.33;100.00
6028;BME280;3042;43.194;27.646;2022-12-24T06:39:48;101556.28;;;8.29;100.00
6028;BME280;3042;43.194;27.646;2022-12-24T06:42:17;101550.72;;;8.61;100.00
6028;BME280;3042;43.194;27.646;2022-12-24T06:44:44;101465.38;;;8.03;100.00
6028;BME280;3042;43.194;27.646;2022-12-24T06:47:11;101552.19;;;8.71;100.00
6028;BME280;3042;43.194;27.646;2022-12-24T06:49:39;101550.16;;;8.78;100.00
6028;BME280;3042;43.194;27.646;2022-12-24T06:52:06;101547.06;;;8.84;100.00
6028;BME280;3042;43.194;27.646;2022-12-24T06:54:33;101554.19;;;9.01;100.00
6028;BME280;3042;43.194;27.646;2022-12-24T06:57:00;101545.81;;;9.32;100.00
6028;BME280;3042;43.194;27.646;2022-12-24T06:59:29;101540.59;;;9.73;100.00
6028;BME280;3042;43.194;27.646;2022-12-24T07:01:56;101547.75;;;9.92;100.00
6028;BME280;3042;43.194;27.646;2022-12-24T07:04:24;101552.75;;;10.32;100.00
6028;BME280;3042;43.194;27.646;2022-12-24T07:06:51;101402.69;;;9.54;100.00
6028;BME280;3042;43.194;27.646;2022-12-24T07:09:18;101535.88;;;10.69;100.00
6028;BME280;3042;43.194;27.646;2022-12-24T07:11:45;101469.09;;;10.45;100.00
6028;BME280;3042;43.194;27.646;2022-12-24T07:14:12;101531.19;;;10.93;100.00
6028;BME280;3042;43.194;27.646;2022-12-24T07:16:41;101476.47;;;10.85;100.00
6028;BME280;3042;43.194;27.646;2022-12-24T07:19:08;101539.22;;;10.83;100.00
6028;BME280;3042;43.194;27.646;2022-12-24T07:21:36;101532.63;;;10.88;100.00
6028;BME280;3042;43.194;27.646;2022-12-24T07:24:03;101476.53;;;10.70;100.00
6028;BME280;3042;43.194;27.646;2022-12-24T07:26:30;101532.19;;;11.11;100.00
6028;BME280;3042;43.194;27.646;2022-12-24T07:28:58;101523.84;;;11.32;100.00
6028;BME280;3042;43.194;27.646;2022-12-24T07:31:25;101524.00;;;11.51;100.00
6028;BME280;3042;43.194;27.646;2022-12-24T07:33:54;101523.75;;;11.79;100.00
6028;BME280;3042;43.194;27.646;2022-12-24T07:36:21;101516.41;;;11.71;100.00
6028;BME280;3042;43.194;27.646;2022-12-24T07:38:49;101515.59;;;11.88;100.00
6028;BME280;3042;43.194;27.646;2022-12-24T07:41:17;101517.28;;;12.04;100.00
6028;BME280;3042;43.194;27.646;2022-12-24T07:43:44;101517.56;;;12.10;100.00
6028;BME280;3042;43.194;27.646;2022-12-24T07:46:12;101511.31;;;12.23;100.00
6028;BME280;3042;43.194;27.646;2022-12-24T07:48:39;101512.44;;;12.28;100.00
6028;BME280;3042;43.194;27.646;2022-12-24T07:51:08;101492.47;;;12.61;100.00
6028;BME280;3042;43.194;27.646;2022-12-24T07:53:35;101504.47;;;12.41;100.00
6028;BME280;3042;43.194;27.646;2022-12-24T07:56:02;101507.00;;;12.58;100.00
6028;BME280;3042;43.194;27.646;2022-12-24T07:58:30;101400.66;;;12.02;100.00
6028;BME280;3042;43.194;27.646;2022-12-24T08:00:58;101495.44;;;12.69;100.00
6028;BME280;3042;43.194;27.646;2022-12-24T08:03:26;101500.16;;;12.78;100.00
6028;BME280;3042;43.194;27.646;2022-12-24T08:05:53;101429.97;;;12.37;100.00
6028;BME280;3042;43.194;27.646;2022-12-24T08:08:22;101481.91;;;12.94;100.00
6028;BME280;3042;43.194;27.646;2022-12-24T08:10:50;101495.47;;;13.06;100.00
6028;BME280;3042;43.194;27.646;2022-12-24T08:13:18;101174.59;;;11.32;100.00
6028;BME280;3042;43.194;27.646;2022-12-24T08:15:46;101497.75;;;13.18;100.00
6028;BME280;3042;43.194;27.646;2022-12-24T08:18:13;101491.19;;;13.26;100.00
6028;BME280;3042;43.194;27.646;2022-12-24T08:20:41;101480.63;;;13.41;100.00
6028;BME280;3042;43.194;27.646;2022-12-24T08:23:08;101354.19;;;12.80;100.00
6028;BME280;3042;43.194;27.646;2022-12-24T08:25:41;101470.00;;;13.76;100.00
6028;BME280;3042;43.194;27.646;2022-12-24T08:28:08;101477.97;;;13.59;100.00
6028;BME280;3042;43.194;27.646;2022-12-24T08:30:36;101476.66;;;13.69;100.00
6028;BME280;3042;43.194;27.646;2022-12-24T08:33:03;101472.06;;;13.83;100.00
6028;BME280;3042;43.194;27.646;2022-12-24T08:35:32;101471.38;;;14.08;100.00
6028;BME280;3042;43.194;27.646;2022-12-24T08:37:59;101475.69;;;14.07;100.00
6028;BME280;3042;43.194;27.646;2022-12-24T08:40:27;101059.06;;;11.52;100.00
6028;BME280;3042;43.194;27.646;2022-12-24T08:42:55;101474.28;;;14.15;100.00
6028;BME280;3042;43.194;27.646;2022-12-24T08:45:23;101481.47;;;14.00;100.00
6028;BME280;3042;43.194;27.646;2022-12-24T08:47:50;101465.16;;;14.04;100.00
6028;BME280;3042;43.194;27.646;2022-12-24T08:50:17;101466.13;;;14.27;100.00
6028;BME280;3042;43.194;27.646;2022-12-24T08:52:45;101239.16;;;12.99;100.00
6028;BME280;3042;43.194;27.646;2022-12-24T08:55:12;101479.25;;;14.09;100.00
6028;BME280;3042;43.194;27.646;2022-12-24T08:57:39;101477.34;;;14.05;100.00
6028;BME280;3042;43.194;27.646;2022-12-24T09:00:10;101459.47;;;14.34;100.00
6028;BME280;3042;43.194;27.646;2022-12-24T09:02:37;101444.13;;;13.98;100.00
6028;BME280;3042;43.194;27.646;2022-12-24T09:05:06;101454.38;;;14.37;100.00
6028;BME280;3042;43.194;27.646;2022-12-24T09:07:33;101451.53;;;14.31;100.00
6028;BME280;3042;43.194;27.646;2022-12-24T09:10:01;101454.38;;;14.37;100.00
6028;BME280;3042;43.194;27.646;2022-12-24T09:12:28;101458.69;;;14.57;100.00
6028;BME280;3042;43.194;27.646;2022-12-24T09:14:55;101453.22;;;14.51;100.00
6028;BME280;3042;43.194;27.646;2022-12-24T09:17:24;101440.19;;;15.17;100.00
6028;BME280;3042;43.194;27.646;2022-12-24T09:19:51;101228.78;;;14.06;100.00
6028;BME280;3042;43.194;27.646;2022-12-24T09:22:18;101425.59;;;15.47;100.00
6028;BME280;3042;43.194;27.646;2022-12-24T09:24:46;101423.56;;;15.63;100.00
6028;BME280;3042;43.194;27.646;2022-12-24T09:27:13;101376.81;;;15.43;100.00
6028;BME280;3042;43.194;27.646;2022-12-24T09:29:40;101424.28;;;15.83;100.00
6028;BME280;3042;43.194;27.646;2022-12-24T09:32:07;101415.44;;;16.04;100.00
6028;BME280;3042;43.194;27.646;2022-12-24T09:34:36;101409.22;;;16.28;100.00
6028;BME280;3042;43.194;27.646;2022-12-24T09:37:03;101209.69;;;15.29;100.00
6028;BME280;3042;43.194;27.646;2022-12-24T09:39:30;101398.06;;;16.60;100.00
6028;BME280;3042;43.194;27.646;2022-12-24T09:42:04;101317.31;;;16.35;100.00
6028;BME280;3042;43.194;27.646;2022-12-24T09:44:40;101385.22;;;16.95;100.00
6028;BME280;3042;43.194;27.646;2022-12-24T09:47:16;101382.19;;;17.12;100.00
6028;BME280;3042;43.194;27.646;2022-12-24T09:49:52;101327.34;;;16.80;100.00
6028;BME280;3042;43.194;27.646;2022-12-24T09:52:27;101386.94;;;17.26;100.00
6028;BME280;3042;43.194;27.646;2022-12-24T09:55:02;101375.94;;;17.38;100.00
6028;BME280;3042;43.194;27.646;2022-12-24T09:57:34;101383.78;;;17.38;100.00
6028;BME280;3042;43.194;27.646;2022-12-24T10:00:10;101377.44;;;17.30;100.00
6028;BME280;3042;43.194;27.646;2022-12-24T10:02:42;101367.41;;;17.45;100.00
6028;BME280;3042;43.194;27.646;2022-12-24T10:05:13;101364.63;;;17.38;100.00
6028;BME280;3042;43.194;27.646;2022-12-24T10:07:47;101311.69;;;17.46;100.00
6028;BME280;3042;43.194;27.646;2022-12-24T10:10:22;101357.22;;;17.55;100.00
6028;BME280;3042;43.194;27.646;2022-12-24T10:12:56;101330.47;;;17.32;100.00
6028;BME280;3042;43.194;27.646;2022-12-24T10:15:34;101260.22;;;17.07;100.00
6028;BME280;3042;43.194;27.646;2022-12-24T10:18:14;101360.19;;;17.35;100.00
6028;BME280;3042;43.194;27.646;2022-12-24T10:20:52;101351.28;;;17.62;100.00
6028;BME280;3042;43.194;27.646;2022-12-24T10:23:26;101350.66;;;18.07;100.00
6028;BME280;3042;43.194;27.646;2022-12-24T10:26:05;101337.56;;;18.45;100.00
6028;BME280;3042;43.194;27.646;2022-12-24T10:28:43;101337.13;;;18.66;100.00
6028;BME280;3042;43.194;27.646;2022-12-24T10:31:13;101338.19;;;18.74;100.00
6028;BME280;3042;43.194;27.646;2022-12-24T10:33:42;101340.50;;;19.00;100.00
6028;BME280;3042;43.194;27.646;2022-12-24T10:36:15;101287.88;;;18.87;100.00
6028;BME280;3042;43.194;27.646;2022-12-24T10:38:43;101237.53;;;18.58;100.00
6028;BME280;3042;43.194;27.646;2022-12-24T10:41:12;101329.75;;;19.33;100.00
6028;BME280;3042;43.194;27.646;2022-12-24T10:43:40;101051.81;;;17.70;100.00
6028;BME280;3042;43.194;27.646;2022-12-24T10:46:16;101329.34;;;19.60;100.00
6028;BME280;3042;43.194;27.646;2022-12-24T10:48:47;101329.28;;;19.55;100.00
6028;BME280;3042;43.194;27.646;2022-12-24T10:51:22;101319.09;;;19.72;100.00
6028;BME280;3042;43.194;27.646;2022-12-24T10:53:56;101319.13;;;19.74;100.00
6028;BME280;3042;43.194;27.646;2022-12-24T10:56:26;101329.47;;;19.68;100.00
6028;BME280;3042;43.194;27.646;2022-12-24T10:58:54;101277.19;;;19.74;100.00
6028;BME280;3042;43.194;27.646;2022-12-24T11:01:41;101304.94;;;20.19;100.00
6028;BME280;3042;43.194;27.646;2022-12-24T11:04:15;101315.47;;;20.22;100.00
6028;BME280;3042;43.194;27.646;2022-12-24T11:06:56;101275.06;;;20.11;100.00
6028;BME280;3042;43.194;27.646;2022-12-24T11:09:26;101278.72;;;20.22;100.00
6028;BME280;3042;43.194;27.646;2022-12-24T11:11:54;101314.88;;;20.43;100.00
6028;BME280;3042;43.194;27.646;2022-12-24T11:14:22;101304.41;;;20.46;100.00
6028;BME280;3042;43.194;27.646;2022-12-24T11:16:51;101295.19;;;20.77;100.00
6028;BME280;3042;43.194;27.646;2022-12-24T11:19:25;101281.41;;;21.00;100.00
6028;BME280;3042;43.194;27.646;2022-12-24T11:22:02;101285.13;;;21.20;100.00
6028;BME280;3042;43.194;27.646;2022-12-24T11:24:32;101286.81;;;21.15;100.00
6028;BME280;3042;43.194;27.646;2022-12-24T11:27:23;101274.88;;;21.45;100.00
6028;BME280;3042;43.194;27.646;2022-12-24T11:29:51;101197.41;;;21.09;100.00
6028;BME280;3042;43.194;27.646;2022-12-24T11:32:20;101305.91;;;21.92;100.00
6028;BME280;3042;43.194;27.646;2022-12-24T11:34:47;101301.53;;;21.94;100.00
6028;BME280;3042;43.194;27.646;2022-12-24T11:37:19;101293.63;;;21.94;100.00
6028;BME280;3042;43.194;27.646;2022-12-24T11:39:49;101218.97;;;21.74;100.00
6028;BME280;3042;43.194;27.646;2022-12-24T11:42:28;101280.63;;;22.22;100.00
6028;BME280;3042;43.194;27.646;2022-12-24T11:44:59;101294.59;;;22.08;100.00
6028;BME280;3042;43.194;27.646;2022-12-24T11:47:35;101302.44;;;22.01;100.00
6028;BME280;3042;43.194;27.646;2022-12-24T11:50:20;101220.50;;;21.41;100.00
6028;BME280;3042;43.194;27.646;2022-12-24T11:52:53;101311.84;;;21.68;100.00
6028;BME280;3042;43.194;27.646;2022-12-24T11:55:32;101311.72;;;21.51;100.00
6028;BME280;3042;43.194;27.646;2022-12-24T11:58:10;101308.16;;;21.43;100.00
6028;BME280;3042;43.194;27.646;2022-12-24T12:00:42;100997.09;;;19.44;100.00
6028;BME280;3042;43.194;27.646;2022-12-24T12:03:24;101297.69;;;21.47;100.00
6028;BME280;3042;43.194;27.646;2022-12-24T12:05:54;101307.97;;;21.27;100.00
6028;BME280;3042;43.194;27.646;2022-12-24T12:08:25;101268.59;;;21.34;100.00
6028;BME280;3042;43.194;27.646;2022-12-24T12:10:56;101287.34;;;21.74;100.00
6028;BME280;3042;43.194;27.646;2022-12-24T12:13:27;101276.97;;;21.97;100.00
6028;BME280;3042;43.194;27.646;2022-12-24T12:16:05;101257.81;;;22.18;100.00
6028;BME280;3042;43.194;27.646;2022-12-24T12:18:36;101257.88;;;22.33;100.00
6028;BME280;3042;43.194;27.646;2022-12-24T12:21:06;101256.13;;;22.32;100.00
6028;BME280;3042;43.194;27.646;2022-12-24T12:23:48;101252.66;;;22.42;99.95
6028;BME280;3042;43.194;27.646;2022-12-24T12:26:21;101243.97;;;22.62;99.21
6028;BME280;3042;43.194;27.646;2022-12-24T12:28:53;101236.97;;;22.76;98.33
6028;BME280;3042;43.194;27.646;2022-12-24T12:31:25;101237.88;;;22.90;97.32
6028;BME280;3042;43.194;27.646;2022-12-24T12:33:56;101198.22;;;22.38;95.54
6028;BME280;3042;43.194;27.646;2022-12-24T12:36:31;101161.28;;;22.20;95.96
6028;BME280;3042;43.194;27.646;2022-12-24T12:39:01;101253.66;;;22.80;95.80
6028;BME280;3042;43.194;27.646;2022-12-24T12:41:44;101254.56;;;22.92;94.56
6028;BME280;3042;43.194;27.646;2022-12-24T12:44:26;101221.00;;;22.33;92.80
6028;BME280;3042;43.194;27.646;2022-12-24T12:47:11;101257.16;;;22.74;94.14
6028;BME280;3042;43.194;27.646;2022-12-24T12:49:47;101217.63;;;22.74;94.67
6028;BME280;3042;43.194;27.646;2022-12-24T12:52:35;101237.91;;;23.24;95.46
6028;BME280;3042;43.194;27.646;2022-12-24T12:55:21;101194.00;;;23.02;93.10
6028;BME280;3042;43.194;27.646;2022-12-24T12:57:53;101041.09;;;22.28;93.42
6028;BME280;3042;43.194;27.646;2022-12-24T13:00:22;101237.03;;;23.41;92.50
6028;BME280;3042;43.194;27.646;2022-12-24T13:03:17;101223.78;;;23.85;92.04
6028;BME280;3042;43.194;27.646;2022-12-24T13:06:22;101112.25;;;23.14;89.81
6028;BME280;3042;43.194;27.646;2022-12-24T13:09:06;101215.84;;;23.99;89.95
6028;BME280;3042;43.194;27.646;2022-12-24T13:11:51;101229.09;;;23.79;88.04
6028;BME280;3042;43.194;27.646;2022-12-24T13:14:42;101235.25;;;23.79;88.75